sensor_id;sensor_type;location;lat;lon;timestamp;P1;durP1;ratioP1;P2;durP2;ratioP2
21448;SDS011;10885;52.830;13.788;2023-07-02T05:33:45;7.05;;;3.70;;
21448;SDS011;10885;52.830;13.788;2023-07-02T05:39:06;5.50;;;3.20;;
21448;SDS011;10885;52.830;13.788;2023-07-02T05:44:28;14.02;;;3.95;;
21448;SDS011;10885;52.830;13.788;2023-07-02T05:49:48;4.68;;;3.65;;
21448;SDS011;10885;52.830;13.788;2023-07-02T05:55:09;6.38;;;3.47;;
21448;SDS011;10885;52.830;13.788;2023-07-02T06:00:31;7.57;;;3.47;;
21448;SDS011;10885;52.830;13.788;2023-07-02T06:05:52;9.82;;;4.18;;
21448;SDS011;10885;52.830;13.788;2023-07-02T06:11:13;8.93;;;3.67;;
21448;SDS011;10885;52.830;13.788;2023-07-02T06:16:35;6.28;;;3.65;;
21448;SDS011;10885;52.830;13.788;2023-07-02T06:21:57;9.27;;;3.35;;
21448;SDS011;10885;52.830;13.788;2023-07-02T06:27:18;5.28;;;3.25;;
21448;SDS011;10885;52.830;13.788;2023-07-02T06:32:39;5.80;;;3.08;;
21448;SDS011;10885;52.830;13.788;2023-07-02T06:38:01;7.93;;;3.17;;
21448;SDS011;10885;52.830;13.788;2023-07-02T06:43:22;5.78;;;3.10;;
21448;SDS011;10885;52.830;13.788;2023-07-02T06:48:43;5.47;;;3.25;;
21448;SDS011;10885;52.830;13.788;2023-07-02T06:54:04;6.97;;;3.80;;
21448;SDS011;10885;52.830;13.788;2023-07-02T06:59:26;5.40;;;3.50;;
21448;SDS011;10885;52.830;13.788;2023-07-02T07:04:47;11.93;;;4.97;;
21448;SDS011;10885;52.830;13.788;2023-07-02T07:10:08;11.15;;;4.00;;
21448;SDS011;10885;52.830;13.788;2023-07-02T07:15:32;7.00;;;3.83;;
21448;SDS011;10885;52.830;13.788;2023-07-02T07:20:55;10.10;;;3.20;;
21448;SDS011;10885;52.830;13.788;2023-07-02T07:26:16;7.60;;;3.30;;
21448;SDS011;10885;52.830;13.788;2023-07-02T07:31:37;7.03;;;3.28;;
21448;SDS011;10885;52.830;13.788;2023-07-02T07:36:58;4.05;;;3.25;;
21448;SDS011;10885;52.830;13.788;2023-07-02T07:42:19;6.45;;;3.10;;
21448;SDS011;10885;52.830;13.788;2023-07-02T07:47:41;5.53;;;3.50;;
21448;SDS011;10885;52.830;13.788;2023-07-02T07:53:02;7.40;;;3.25;;
21448;SDS011;10885;52.830;13.788;2023-07-02T07:58:23;6.05;;;3.83;;
21448;SDS011;10885;52.830;13.788;2023-07-02T08:03:45;5.15;;;3.13;;
21448;SDS011;10885;52.830;13.788;2023-07-02T08:09:06;6.03;;;3.33;;
21448;SDS011;10885;52.830;13.788;2023-07-02T08:14:28;11.65;;;3.85;;
21448;SDS011;10885;52.830;13.788;2023-07-02T08:19:49;11.80;;;4.00;;
21448;SDS011;10885;52.830;13.788;2023-07-02T08:25:10;11.38;;;4.30;;
21448;SDS011;10885;52.830;13.788;2023-07-02T08:30:31;12.00;;;4.65;;
21448;SDS011;10885;52.830;13.788;2023-07-02T08:35:52;7.93;;;4.72;;
21448;SDS011;10885;52.830;13.788;2023-07-02T08:41:13;8.05;;;4.53;;
21448;SDS011;10885;52.830;13.788;2023-07-02T08:46:35;10.13;;;4.82;;
21448;SDS011;10885;52.830;13.788;2023-07-02T08:51:57;9.75;;;5.28;;
21448;SDS011;10885;52.830;13.788;2023-07-02T08:57:18;10.60;;;5.47;;
21448;SDS011;10885;52.830;13.788;2023-07-02T09:02:39;10.88;;;5.57;;
21448;SDS011;10885;52.830;13.788;2023-07-02T09:08:00;10.07;;;5.30;;
21448;SDS011;10885;52.830;13.788;2023-07-02T09:13:21;12.15;;;5.18;;
21448;SDS011;10885;52.830;13.788;2023-07-02T09:18:43;9.00;;;5.05;;
21448;SDS011;10885;52.830;13.788;2023-07-02T09:24:20;11.55;;;5.25;;
21448;SDS011;10885;52.830;13.788;2023-07-02T09:29:43;11.77;;;5.30;;
21448;SDS011;10885;52.830;13.788;2023-07-02T09:35:12;11.77;;;5.80;;
21448;SDS011;10885;52.830;13.788;2023-07-02T09:40:33;12.95;;;6.30;;
21448;SDS011;10885;52.830;13.788;2023-07-02T09:45:55;15.73;;;6.47;;
21448;SDS011;10885;52.830;13.788;2023-07-02T09:51:16;11.48;;;5.90;;
21448;SDS011;10885;52.830;13.788;2023-07-02T09:56:39;10.43;;;5.97;;
21448;SDS011;10885;52.830;13.788;2023-07-02T10:02:00;12.40;;;6.45;;
21448;SDS011;10885;52.830;13.788;2023-07-02T10:07:28;13.20;;;6.00;;
21448;SDS011;10885;52.830;13.788;2023-07-02T10:12:50;11.87;;;5.93;;
21448;SDS011;10885;52.830;13.788;2023-07-02T10:18:12;15.85;;;6.80;;
21448;SDS011;10885;52.830;13.788;2023-07-02T10:23:34;11.95;;;5.75;;
21448;SDS011;10885;52.830;13.788;2023-07-02T10:28:59;14.13;;;6.70;;
21448;SDS011;10885;52.830;13.788;2023-07-02T10:34:33;12.80;;;6.25;;
21448;SDS011;10885;52.830;13.788;2023-07-02T10:39:55;10.85;;;6.07;;
21448;SDS011;10885;52.830;13.788;2023-07-02T10:45:17;15.88;;;7.13;;
21448;SDS011;10885;52.830;13.788;2023-07-02T10:50:39;18.48;;;6.35;;
21448;SDS011;10885;52.830;13.788;2023-07-02T10:56:00;13.93;;;6.05;;
21448;SDS011;10885;52.830;13.788;2023-07-02T11:01:23;16.30;;;6.32;;
21448;SDS011;10885;52.830;13.788;2023-07-02T11:06:44;15.45;;;6.90;;
21448;SDS011;10885;52.830;13.788;2023-07-02T11:12:08;10.27;;;6.28;;
21448;SDS011;10885;52.830;13.788;2023-07-02T11:17:29;16.77;;;6.97;;
21448;SDS011;10885;52.830;13.788;2023-07-02T11:22:50;14.75;;;7.20;;
21448;SDS011;10885;52.830;13.788;2023-07-02T11:28:11;15.68;;;7.30;;
21448;SDS011;10885;52.830;13.788;2023-07-02T11:33:39;14.13;;;7.07;;
21448;SDS011;10885;52.830;13.788;2023-07-02T11:44:23;15.75;;;7.15;;
21448;SDS011;10885;52.830;13.788;2023-07-02T11:49:45;13.10;;;7.72;;
21448;SDS011;10885;52.830;13.788;2023-07-02T11:55:06;17.55;;;7.28;;
21448;SDS011;10885;52.830;13.788;2023-07-02T12:00:27;16.17;;;8.02;;
21448;SDS011;10885;52.830;13.788;2023-07-02T12:05:49;15.65;;;8.18;;
21448;SDS011;10885;52.830;13.788;2023-07-02T12:11:10;20.83;;;8.80;;
21448;SDS011;10885;52.830;13.788;2023-07-02T12:16:31;14.88;;;7.78;;
21448;SDS011;10885;52.830;13.788;2023-07-02T12:21:53;16.42;;;7.72;;
21448;SDS011;10885;52.830;13.788;2023-07-02T12:27:14;17.73;;;8.15;;
21448;SDS011;10885;52.830;13.788;2023-07-02T12:32:37;17.60;;;7.88;;
21448;SDS011;10885;52.830;13.788;2023-07-02T12:37:59;15.27;;;8.25;;
21448;SDS011;10885;52.830;13.788;2023-07-02T12:43:21;22.73;;;8.15;;
21448;SDS011;10885;52.830;13.788;2023-07-02T12:48:42;15.50;;;7.78;;
21448;SDS011;10885;52.830;13.788;2023-07-02T12:54:03;16.75;;;8.45;;
21448;SDS011;10885;52.830;13.788;2023-07-02T12:59:25;19.92;;;8.65;;
21448;SDS011;10885;52.830;13.788;2023-07-02T13:04:46;21.58;;;8.65;;
21448;SDS011;10885;52.830;13.788;2023-07-02T13:10:07;18.85;;;8.13;;
21448;SDS011;10885;52.830;13.788;2023-07-02T13:15:29;17.20;;;8.43;;
21448;SDS011;10885;52.830;13.788;2023-07-02T13:20:49;15.38;;;8.40;;
21448;SDS011;10885;52.830;13.788;2023-07-02T13:26:11;16.27;;;8.18;;
21448;SDS011;10885;52.830;13.788;2023-07-02T13:31:32;16.25;;;8.88;;
21448;SDS011;10885;52.830;13.788;2023-07-02T13:36:53;13.75;;;7.57;;
21448;SDS011;10885;52.830;13.788;2023-07-02T13:42:14;10.55;;;7.25;;
21448;SDS011;10885;52.830;13.788;2023-07-02T13:47:35;14.52;;;8.00;;
21448;SDS011;10885;52.830;13.788;2023-07-02T13:52:57;16.50;;;9.13;;
21448;SDS011;10885;52.830;13.788;2023-07-02T13:58:19;14.68;;;8.07;;
21448;SDS011;10885;52.830;13.788;2023-07-02T14:03:44;17.67;;;8.65;;
21448;SDS011;10885;52.830;13.788;2023-07-02T14:09:06;16.92;;;9.20;;
21448;SDS011;10885;52.830;13.788;2023-07-02T14:14:27;16.77;;;8.05;;
21448;SDS011;10885;52.830;13.788;2023-07-02T14:19:49;14.27;;;8.13;;
21448;SDS011;10885;52.830;13.788;2023-07-02T14:25:10;13.88;;;7.72;;
21448;SDS011;10885;52.830;13.788;2023-07-02T14:30:31;13.77;;;8.02;;
21448;SDS011;10885;52.830;13.788;2023-07-02T14:35:52;18.55;;;8.45;;
21448;SDS011;10885;52.830;13.788;2023-07-02T14:41:14;27.58;;;9.55;;
21448;SDS011;10885;52.830;13.788;2023-07-02T14:46:35;17.30;;;8.13;;
21448;SDS011;10885;52.830;13.788;2023-07-02T14:51:56;29.23;;;11.48;;
21448;SDS011;10885;52.830;13.788;2023-07-02T14:57:17;15.13;;;8.55;;
21448;SDS011;10885;52.830;13.788;2023-07-02T15:02:40;19.85;;;8.35;;
21448;SDS011;10885;52.830;13.788;2023-07-02T15:08:01;15.65;;;7.90;;
21448;SDS011;10885;52.830;13.788;2023-07-02T15:13:22;17.67;;;7.35;;
21448;SDS011;10885;52.830;13.788;2023-07-02T15:18:44;19.45;;;7.80;;
21448;SDS011;10885;52.830;13.788;2023-07-02T15:24:06;16.02;;;7.85;;
21448;SDS011;10885;52.830;13.788;2023-07-02T15:29:27;14.32;;;7.95;;
21448;SDS011;10885;52.830;13.788;2023-07-02T15:34:48;29.45;;;8.35;;
21448;SDS011;10885;52.830;13.788;2023-07-02T15:40:09;15.40;;;7.97;;
21448;SDS011;10885;52.830;13.788;2023-07-02T15:45:31;16.20;;;7.90;;
21448;SDS011;10885;52.830;13.788;2023-07-02T15:50:52;12.07;;;7.22;;
21448;SDS011;10885;52.830;13.788;2023-07-02T15:56:13;16.80;;;7.75;;
21448;SDS011;10885;52.830;13.788;2023-07-02T16:01:34;15.50;;;7.25;;
21448;SDS011;10885;52.830;13.788;2023-07-02T16:06:58;16.85;;;7.55;;
21448;SDS011;10885;52.830;13.788;2023-07-02T16:12:19;17.77;;;7.25;;
21448;SDS011;10885;52.830;13.788;2023-07-02T16:17:40;14.18;;;7.20;;
21448;SDS011;10885;52.830;13.788;2023-07-02T16:23:02;13.85;;;7.00;;
21448;SDS011;10885;52.830;13.788;2023-07-02T16:28:24;13.77;;;6.60;;
21448;SDS011;10885;52.830;13.788;2023-07-02T16:33:46;17.25;;;7.80;;
21448;SDS011;10885;52.830;13.788;2023-07-02T16:39:07;11.88;;;6.63;;
21448;SDS011;10885;52.830;13.788;2023-07-02T16:44:29;17.70;;;7.10;;
21448;SDS011;10885;52.830;13.788;2023-07-02T16:49:51;14.80;;;6.30;;
21448;SDS011;10885;52.830;13.788;2023-07-02T16:55:12;12.65;;;5.90;;
21448;SDS011;10885;52.830;13.788;2023-07-02T17:00:34;11.95;;;6.45;;
21448;SDS011;10885;52.830;13.788;2023-07-02T17:05:58;16.20;;;6.65;;
21448;SDS011;10885;52.830;13.788;2023-07-02T17:11:19;18.67;;;6.80;;
21448;SDS011;10885;52.830;13.788;2023-07-02T17:16:40;15.30;;;6.63;;
21448;SDS011;10885;52.830;13.788;2023-07-02T17:22:02;13.68;;;6.65;;
21448;SDS011;10885;52.830;13.788;2023-07-02T17:27:25;10.65;;;5.43;;
21448;SDS011;10885;52.830;13.788;2023-07-02T17:32:52;15.10;;;6.18;;
21448;SDS011;10885;52.830;13.788;2023-07-02T17:38:13;14.93;;;6.53;;
21448;SDS011;10885;52.830;13.788;2023-07-02T17:43:34;12.30;;;5.60;;
21448;SDS011;10885;52.830;13.788;2023-07-02T17:48:55;12.90;;;5.25;;
21448;SDS011;10885;52.830;13.788;2023-07-02T17:54:17;15.27;;;5.70;;
21448;SDS011;10885;52.830;13.788;2023-07-02T17:59:39;13.88;;;6.47;;
21448;SDS011;10885;52.830;13.788;2023-07-02T18:05:00;14.43;;;5.78;;
21448;SDS011;10885;52.830;13.788;2023-07-02T18:10:22;11.98;;;5.57;;
21448;SDS011;10885;52.830;13.788;2023-07-02T18:15:44;11.73;;;5.32;;
21448;SDS011;10885;52.830;13.788;2023-07-02T18:21:05;11.05;;;5.40;;
21448;SDS011;10885;52.830;13.788;2023-07-02T18:26:26;11.98;;;5.22;;
21448;SDS011;10885;52.830;13.788;2023-07-02T18:31:48;15.23;;;5.53;;
21448;SDS011;10885;52.830;13.788;2023-07-02T18:37:09;10.07;;;5.22;;
21448;SDS011;10885;52.830;13.788;2023-07-02T18:42:31;14.63;;;5.63;;
21448;SDS011;10885;52.830;13.788;2023-07-02T18:47:52;12.23;;;5.57;;
21448;SDS011;10885;52.830;13.788;2023-07-02T18:53:13;14.43;;;5.68;;
21448;SDS011;10885;52.830;13.788;2023-07-02T18:58:35;15.43;;;5.68;;
21448;SDS011;10885;52.830;13.788;2023-07-02T19:03:57;15.00;;;5.78;;
21448;SDS011;10885;52.830;13.788;2023-07-02T19:09:18;11.00;;;5.22;;
21448;SDS011;10885;52.830;13.788;2023-07-02T19:14:39;17.23;;;6.30;;
21448;SDS011;10885;52.830;13.788;2023-07-02T19:20:01;17.77;;;6.15;;
21448;SDS011;10885;52.830;13.788;2023-07-02T19:25:22;20.00;;;6.00;;
21448;SDS011;10885;52.830;13.788;2023-07-02T19:30:43;13.85;;;6.05;;
21448;SDS011;10885;52.830;13.788;2023-07-02T19:36:07;12.73;;;5.88;;
21448;SDS011;10885;52.830;13.788;2023-07-02T19:41:29;10.40;;;5.35;;
21448;SDS011;10885;52.830;13.788;2023-07-02T19:46:50;14.90;;;5.50;;
21448;SDS011;10885;52.830;13.788;2023-07-02T19:52:14;15.07;;;6.35;;
21448;SDS011;10885;52.830;13.788;2023-07-02T19:57:36;11.45;;;6.20;;
21448;SDS011;10885;52.830;13.788;2023-07-02T20:02:58;18.17;;;6.25;;
21448;SDS011;10885;52.830;13.788;2023-07-02T20:08:20;19.88;;;5.38;;
